sensor_id;sensor_type;location;lat;lon;timestamp;P1;durP1;ratioP1;P2;durP2;ratioP2
47860;SDS011;33620;52.340;5.984;2024-01-06T00:00:12;33.78;;;17.23;;
47860;SDS011;33620;52.340;5.984;2024-01-06T00:02:38;34.65;;;17.00;;
47860;SDS011;33620;52.340;5.984;2024-01-06T00:05:04;33.78;;;17.27;;
47860;SDS011;33620;52.340;5.984;2024-01-06T00:07:30;35.08;;;18.48;;
47860;SDS011;33620;52.340;5.984;2024-01-06T00:09:55;36.33;;;18.83;;
47860;SDS011;33620;52.340;5.984;2024-01-06T00:12:21;37.08;;;18.80;;
47860;SDS011;33620;52.340;5.984;2024-01-06T00:14:46;33.85;;;17.40;;
47860;SDS011;33620;52.340;5.984;2024-01-06T00:17:11;34.65;;;18.35;;
47860;SDS011;33620;52.340;5.984;2024-01-06T00:19:37;35.85;;;18.42;;
47860;SDS011;33620;52.340;5.984;2024-01-06T00:22:02;32.85;;;17.48;;
47860;SDS011;33620;52.340;5.984;2024-01-06T00:24:28;34.65;;;17.83;;
47860;SDS011;33620;52.340;5.984;2024-01-06T00:26:53;39.75;;;19.25;;
47860;SDS011;33620;52.340;5.984;2024-01-06T00:29:18;36.75;;;18.90;;
47860;SDS011;33620;52.340;5.984;2024-01-06T00:31:44;35.40;;;18.05;;
47860;SDS011;33620;52.340;5.984;2024-01-06T00:34:09;37.40;;;19.55;;
47860;SDS011;33620;52.340;5.984;2024-01-06T00:36:34;35.88;;;20.05;;
47860;SDS011;33620;52.340;5.984;2024-01-06T00:39:00;38.55;;;20.60;;
47860;SDS011;33620;52.340;5.984;2024-01-06T00:41:25;35.63;;;19.33;;
47860;SDS011;33620;52.340;5.984;2024-01-06T00:43:51;35.40;;;18.33;;
47860;SDS011;33620;52.340;5.984;2024-01-06T00:46:16;33.25;;;18.10;;
47860;SDS011;33620;52.340;5.984;2024-01-06T00:48:42;36.28;;;18.20;;
47860;SDS011;33620;52.340;5.984;2024-01-06T00:51:07;33.80;;;16.98;;
47860;SDS011;33620;52.340;5.984;2024-01-06T00:53:32;32.42;;;16.35;;
47860;SDS011;33620;52.340;5.984;2024-01-06T00:55:58;34.50;;;17.65;;
47860;SDS011;33620;52.340;5.984;2024-01-06T00:58:23;32.58;;;16.95;;
47860;SDS011;33620;52.340;5.984;2024-01-06T01:00:49;34.08;;;16.95;;
47860;SDS011;33620;52.340;5.984;2024-01-06T01:03:14;32.42;;;16.08;;
47860;SDS011;33620;52.340;5.984;2024-01-06T01:05:40;32.50;;;16.92;;
47860;SDS011;33620;52.340;5.984;2024-01-06T01:08:05;32.03;;;16.35;;
47860;SDS011;33620;52.340;5.984;2024-01-06T01:10:31;34.70;;;17.58;;
47860;SDS011;33620;52.340;5.984;2024-01-06T01:12:56;35.90;;;18.40;;
47860;SDS011;33620;52.340;5.984;2024-01-06T01:15:21;37.03;;;18.77;;
47860;SDS011;33620;52.340;5.984;2024-01-06T01:17:47;38.47;;;20.58;;
47860;SDS011;33620;52.340;5.984;2024-01-06T01:20:12;36.00;;;19.13;;
47860;SDS011;33620;52.340;5.984;2024-01-06T01:22:38;35.60;;;18.33;;
47860;SDS011;33620;52.340;5.984;2024-01-06T01:25:03;39.45;;;19.95;;
47860;SDS011;33620;52.340;5.984;2024-01-06T01:27:32;35.03;;;18.67;;
47860;SDS011;33620;52.340;5.984;2024-01-06T01:29:58;37.65;;;19.17;;
47860;SDS011;33620;52.340;5.984;2024-01-06T01:32:24;35.85;;;20.08;;
47860;SDS011;33620;52.340;5.984;2024-01-06T01:34:49;38.20;;;19.00;;
47860;SDS011;33620;52.340;5.984;2024-01-06T01:37:15;35.25;;;18.25;;
47860;SDS011;33620;52.340;5.984;2024-01-06T01:39:40;36.78;;;19.38;;
47860;SDS011;33620;52.340;5.984;2024-01-06T01:42:06;36.40;;;18.75;;
47860;SDS011;33620;52.340;5.984;2024-01-06T01:44:31;40.03;;;19.45;;
47860;SDS011;33620;52.340;5.984;2024-01-06T01:46:56;36.05;;;17.92;;
47860;SDS011;33620;52.340;5.984;2024-01-06T01:49:22;37.55;;;18.67;;
47860;SDS011;33620;52.340;5.984;2024-01-06T01:51:48;33.97;;;17.98;;
47860;SDS011;33620;52.340;5.984;2024-01-06T01:54:14;37.17;;;19.13;;
47860;SDS011;33620;52.340;5.984;2024-01-06T01:56:40;38.05;;;19.02;;
47860;SDS011;33620;52.340;5.984;2024-01-06T01:59:13;41.55;;;20.40;;
47860;SDS011;33620;52.340;5.984;2024-01-06T02:01:42;40.67;;;21.40;;
47860;SDS011;33620;52.340;5.984;2024-01-06T02:04:08;45.05;;;23.08;;
47860;SDS011;33620;52.340;5.984;2024-01-06T02:06:33;46.28;;;24.75;;
47860;SDS011;33620;52.340;5.984;2024-01-06T02:08:59;46.30;;;24.23;;
47860;SDS011;33620;52.340;5.984;2024-01-06T02:11:24;44.72;;;23.05;;
47860;SDS011;33620;52.340;5.984;2024-01-06T02:13:50;48.05;;;22.63;;
47860;SDS011;33620;52.340;5.984;2024-01-06T02:16:15;48.45;;;23.10;;
47860;SDS011;33620;52.340;5.984;2024-01-06T02:18:41;43.28;;;22.40;;
47860;SDS011;33620;52.340;5.984;2024-01-06T02:21:06;49.22;;;23.90;;
47860;SDS011;33620;52.340;5.984;2024-01-06T02:23:34;51.30;;;25.25;;
47860;SDS011;33620;52.340;5.984;2024-01-06T02:26:00;48.33;;;23.88;;
47860;SDS011;33620;52.340;5.984;2024-01-06T02:28:25;49.33;;;23.25;;
47860;SDS011;33620;52.340;5.984;2024-01-06T02:30:51;49.67;;;24.35;;
47860;SDS011;33620;52.340;5.984;2024-01-06T02:33:16;44.80;;;23.50;;
47860;SDS011;33620;52.340;5.984;2024-01-06T02:35:44;48.17;;;22.67;;
47860;SDS011;33620;52.340;5.984;2024-01-06T02:38:10;47.28;;;22.77;;
47860;SDS011;33620;52.340;5.984;2024-01-06T02:40:35;43.63;;;22.70;;
47860;SDS011;33620;52.340;5.984;2024-01-06T02:43:01;45.85;;;22.95;;
47860;SDS011;33620;52.340;5.984;2024-01-06T02:45:26;39.75;;;20.42;;
47860;SDS011;33620;52.340;5.984;2024-01-06T02:47:51;47.10;;;23.25;;
47860;SDS011;33620;52.340;5.984;2024-01-06T02:50:17;47.30;;;22.63;;
47860;SDS011;33620;52.340;5.984;2024-01-06T02:52:43;45.20;;;22.75;;
47860;SDS011;33620;52.340;5.984;2024-01-06T02:55:10;44.42;;;22.45;;
47860;SDS011;33620;52.340;5.984;2024-01-06T02:57:35;45.08;;;23.67;;
47860;SDS011;33620;52.340;5.984;2024-01-06T03:00:01;43.17;;;22.88;;
47860;SDS011;33620;52.340;5.984;2024-01-06T03:02:26;46.22;;;23.52;;
47860;SDS011;33620;52.340;5.984;2024-01-06T03:04:52;42.75;;;22.88;;
47860;SDS011;33620;52.340;5.984;2024-01-06T03:07:17;41.38;;;20.85;;
47860;SDS011;33620;52.340;5.984;2024-01-06T03:09:43;41.72;;;21.70;;
47860;SDS011;33620;52.340;5.984;2024-01-06T03:12:08;44.05;;;21.67;;
47860;SDS011;33620;52.340;5.984;2024-01-06T03:14:34;42.53;;;22.10;;
47860;SDS011;33620;52.340;5.984;2024-01-06T03:17:00;40.47;;;21.02;;
47860;SDS011;33620;52.340;5.984;2024-01-06T03:19:25;43.28;;;20.98;;
47860;SDS011;33620;52.340;5.984;2024-01-06T03:21:52;36.92;;;19.30;;
47860;SDS011;33620;52.340;5.984;2024-01-06T03:24:18;37.85;;;19.40;;
47860;SDS011;33620;52.340;5.984;2024-01-06T03:26:43;45.00;;;22.05;;
47860;SDS011;33620;52.340;5.984;2024-01-06T03:29:09;38.63;;;19.85;;
47860;SDS011;33620;52.340;5.984;2024-01-06T03:31:34;41.45;;;21.27;;
47860;SDS011;33620;52.340;5.984;2024-01-06T03:33:59;39.72;;;21.05;;
47860;SDS011;33620;52.340;5.984;2024-01-06T03:36:25;37.33;;;19.67;;
47860;SDS011;33620;52.340;5.984;2024-01-06T03:38:50;36.00;;;18.67;;
47860;SDS011;33620;52.340;5.984;2024-01-06T03:41:16;38.75;;;19.33;;
47860;SDS011;33620;52.340;5.984;2024-01-06T03:43:41;38.90;;;19.35;;
47860;SDS011;33620;52.340;5.984;2024-01-06T03:46:06;38.97;;;19.42;;
47860;SDS011;33620;52.340;5.984;2024-01-06T03:48:32;38.15;;;20.08;;
47860;SDS011;33620;52.340;5.984;2024-01-06T03:50:58;38.05;;;19.42;;
47860;SDS011;33620;52.340;5.984;2024-01-06T03:53:24;40.47;;;19.33;;
47860;SDS011;33620;52.340;5.984;2024-01-06T03:55:49;37.20;;;18.45;;
47860;SDS011;33620;52.340;5.984;2024-01-06T03:58:15;38.50;;;19.10;;
47860;SDS011;33620;52.340;5.984;2024-01-06T04:00:40;35.97;;;18.15;;
47860;SDS011;33620;52.340;5.984;2024-01-06T04:03:05;33.92;;;17.83;;
47860;SDS011;33620;52.340;5.984;2024-01-06T04:05:31;36.15;;;18.05;;
47860;SDS011;33620;52.340;5.984;2024-01-06T04:07:57;34.70;;;17.17;;
47860;SDS011;33620;52.340;5.984;2024-01-06T04:10:22;38.95;;;18.30;;
47860;SDS011;33620;52.340;5.984;2024-01-06T04:12:48;34.00;;;17.35;;
47860;SDS011;33620;52.340;5.984;2024-01-06T04:15:13;32.53;;;16.90;;
47860;SDS011;33620;52.340;5.984;2024-01-06T04:17:38;33.63;;;16.10;;
47860;SDS011;33620;52.340;5.984;2024-01-06T04:20:04;32.83;;;16.95;;
47860;SDS011;33620;52.340;5.984;2024-01-06T04:22:30;36.28;;;18.90;;
47860;SDS011;33620;52.340;5.984;2024-01-06T04:24:55;38.15;;;19.02;;
47860;SDS011;33620;52.340;5.984;2024-01-06T04:27:21;35.38;;;18.88;;
47860;SDS011;33620;52.340;5.984;2024-01-06T04:29:46;36.25;;;18.17;;
47860;SDS011;33620;52.340;5.984;2024-01-06T04:32:11;35.85;;;18.00;;
47860;SDS011;33620;52.340;5.984;2024-01-06T04:34:37;36.63;;;17.95;;
47860;SDS011;33620;52.340;5.984;2024-01-06T04:37:02;39.40;;;19.33;;
47860;SDS011;33620;52.340;5.984;2024-01-06T04:39:28;39.20;;;19.98;;
47860;SDS011;33620;52.340;5.984;2024-01-06T04:41:53;44.33;;;21.33;;
47860;SDS011;33620;52.340;5.984;2024-01-06T04:44:20;44.17;;;21.30;;
47860;SDS011;33620;52.340;5.984;2024-01-06T04:46:46;37.63;;;19.55;;
47860;SDS011;33620;52.340;5.984;2024-01-06T04:49:11;42.45;;;20.30;;
47860;SDS011;33620;52.340;5.984;2024-01-06T04:51:37;41.20;;;20.48;;
47860;SDS011;33620;52.340;5.984;2024-01-06T04:54:02;40.83;;;20.08;;
47860;SDS011;33620;52.340;5.984;2024-01-06T04:56:28;40.83;;;20.40;;
47860;SDS011;33620;52.340;5.984;2024-01-06T04:58:53;39.53;;;18.75;;
47860;SDS011;33620;52.340;5.984;2024-01-06T05:01:18;42.03;;;21.08;;
47860;SDS011;33620;52.340;5.984;2024-01-06T05:03:44;39.38;;;19.63;;
47860;SDS011;33620;52.340;5.984;2024-01-06T05:06:09;41.20;;;20.95;;
47860;SDS011;33620;52.340;5.984;2024-01-06T05:08:35;37.55;;;19.10;;
47860;SDS011;33620;52.340;5.984;2024-01-06T05:11:03;37.50;;;18.77;;
47860;SDS011;33620;52.340;5.984;2024-01-06T05:13:30;37.50;;;17.70;;
47860;SDS011;33620;52.340;5.984;2024-01-06T05:15:55;38.42;;;18.60;;
47860;SDS011;33620;52.340;5.984;2024-01-06T05:18:20;35.88;;;19.17;;
47860;SDS011;33620;52.340;5.984;2024-01-06T05:20:46;41.35;;;20.20;;
47860;SDS011;33620;52.340;5.984;2024-01-06T05:23:11;38.08;;;18.92;;
47860;SDS011;33620;52.340;5.984;2024-01-06T05:25:37;38.95;;;20.50;;
47860;SDS011;33620;52.340;5.984;2024-01-06T05:28:02;37.72;;;18.85;;
47860;SDS011;33620;52.340;5.984;2024-01-06T05:30:28;40.92;;;19.70;;
47860;SDS011;33620;52.340;5.984;2024-01-06T05:32:53;37.38;;;18.05;;
47860;SDS011;33620;52.340;5.984;2024-01-06T05:35:19;38.65;;;20.73;;
47860;SDS011;33620;52.340;5.984;2024-01-06T05:37:44;36.53;;;18.15;;
47860;SDS011;33620;52.340;5.984;2024-01-06T05:40:09;38.10;;;18.92;;
47860;SDS011;33620;52.340;5.984;2024-01-06T05:42:36;36.15;;;19.58;;
47860;SDS011;33620;52.340;5.984;2024-01-06T05:45:01;37.00;;;19.42;;
47860;SDS011;33620;52.340;5.984;2024-01-06T05:47:27;35.47;;;18.35;;
47860;SDS011;33620;52.340;5.984;2024-01-06T05:49:53;38.08;;;20.17;;
47860;SDS011;33620;52.340;5.984;2024-01-06T05:52:18;37.95;;;18.63;;
47860;SDS011;33620;52.340;5.984;2024-01-06T05:54:43;34.95;;;18.50;;
47860;SDS011;33620;52.340;5.984;2024-01-06T05:57:09;35.00;;;18.80;;
47860;SDS011;33620;52.340;5.984;2024-01-06T05:59:34;38.50;;;18.45;;
47860;SDS011;33620;52.340;5.984;2024-01-06T06:02:00;41.63;;;20.95;;
47860;SDS011;33620;52.340;5.984;2024-01-06T06:04:25;36.15;;;17.70;;
47860;SDS011;33620;52.340;5.984;2024-01-06T06:06:51;42.55;;;20.67;;
47860;SDS011;33620;52.340;5.984;2024-01-06T06:09:16;41.53;;;19.63;;
47860;SDS011;33620;52.340;5.984;2024-01-06T06:11:42;35.35;;;18.67;;
47860;SDS011;33620;52.340;5.984;2024-01-06T06:14:08;41.10;;;19.85;;
47860;SDS011;33620;52.340;5.984;2024-01-06T06:16:33;36.10;;;19.17;;
47860;SDS011;33620;52.340;5.984;2024-01-06T06:18:59;36.92;;;18.83;;
47860;SDS011;33620;52.340;5.984;2024-01-06T06:21:24;37.63;;;19.70;;
47860;SDS011;33620;52.340;5.984;2024-01-06T06:23:49;37.33;;;18.85;;
47860;SDS011;33620;52.340;5.984;2024-01-06T06:26:15;39.33;;;19.77;;
47860;SDS011;33620;52.340;5.984;2024-01-06T06:28:41;35.53;;;17.90;;
47860;SDS011;33620;52.340;5.984;2024-01-06T06:31:06;33.58;;;17.73;;
47860;SDS011;33620;52.340;5.984;2024-01-06T06:33:32;33.95;;;17.65;;
47860;SDS011;33620;52.340;5.984;2024-01-06T06:35:58;39.33;;;18.63;;
47860;SDS011;33620;52.340;5.984;2024-01-06T06:38:25;35.45;;;18.15;;
47860;SDS011;33620;52.340;5.984;2024-01-06T06:40:50;34.95;;;18.48;;
47860;SDS011;33620;52.340;5.984;2024-01-06T06:43:16;37.22;;;18.15;;
47860;SDS011;33620;52.340;5.984;2024-01-06T06:45:41;38.15;;;18.83;;
47860;SDS011;33620;52.340;5.984;2024-01-06T06:48:06;37.28;;;18.80;;
47860;SDS011;33620;52.340;5.984;2024-01-06T06:50:32;33.17;;;17.80;;
47860;SDS011;33620;52.340;5.984;2024-01-06T06:52:57;34.72;;;17.35;;
47860;SDS011;33620;52.340;5.984;2024-01-06T06:55:24;38.55;;;18.55;;
47860;SDS011;33620;52.340;5.984;2024-01-06T06:57:49;36.15;;;18.95;;
47860;SDS011;33620;52.340;5.984;2024-01-06T07:00:15;39.25;;;19.02;;
47860;SDS011;33620;52.340;5.984;2024-01-06T07:02:42;39.53;;;18.92;;
47860;SDS011;33620;52.340;5.984;2024-01-06T07:05:07;40.70;;;19.20;;
47860;SDS011;33620;52.340;5.984;2024-01-06T07:07:33;38.45;;;19.35;;
47860;SDS011;33620;52.340;5.984;2024-01-06T07:10:00;38.22;;;17.42;;
47860;SDS011;33620;52.340;5.984;2024-01-06T07:12:26;40.47;;;20.05;;
47860;SDS011;33620;52.340;5.984;2024-01-06T07:14:52;42.88;;;20.00;;
47860;SDS011;33620;52.340;5.984;2024-01-06T07:17:17;44.20;;;21.33;;
47860;SDS011;33620;52.340;5.984;2024-01-06T07:19:43;39.88;;;19.83;;
47860;SDS011;33620;52.340;5.984;2024-01-06T07:22:08;40.05;;;19.85;;
47860;SDS011;33620;52.340;5.984;2024-01-06T07:24:34;46.22;;;21.27;;
47860;SDS011;33620;52.340;5.984;2024-01-06T07:27:01;36.35;;;17.05;;
47860;SDS011;33620;52.340;5.984;2024-01-06T07:29:26;38.72;;;19.35;;
47860;SDS011;33620;52.340;5.984;2024-01-06T07:31:52;39.47;;;18.85;;
47860;SDS011;33620;52.340;5.984;2024-01-06T07:34:17;36.58;;;19.17;;
47860;SDS011;33620;52.340;5.984;2024-01-06T07:36:43;37.20;;;18.88;;
47860;SDS011;33620;52.340;5.984;2024-01-06T07:39:08;38.97;;;18.75;;
47860;SDS011;33620;52.340;5.984;2024-01-06T07:41:34;43.88;;;19.30;;
47860;SDS011;33620;52.340;5.984;2024-01-06T07:43:59;38.80;;;19.05;;
47860;SDS011;33620;52.340;5.984;2024-01-06T07:46:27;39.83;;;19.38;;
47860;SDS011;33620;52.340;5.984;2024-01-06T07:48:52;42.35;;;20.60;;
47860;SDS011;33620;52.340;5.984;2024-01-06T07:51:18;40.50;;;19.10;;
47860;SDS011;33620;52.340;5.984;2024-01-06T07:53:43;40.85;;;19.10;;
47860;SDS011;33620;52.340;5.984;2024-01-06T07:56:09;39.25;;;19.25;;
47860;SDS011;33620;52.340;5.984;2024-01-06T07:58:34;41.30;;;18.40;;
47860;SDS011;33620;52.340;5.984;2024-01-06T08:00:59;41.58;;;20.80;;
47860;SDS011;33620;52.340;5.984;2024-01-06T08:03:25;41.65;;;20.15;;
47860;SDS011;33620;52.340;5.984;2024-01-06T08:05:50;49.25;;;21.92;;
47860;SDS011;33620;52.340;5.984;2024-01-06T08:08:15;45.42;;;21.77;;
47860;SDS011;33620;52.340;5.984;2024-01-06T08:10:42;43.40;;;20.95;;
47860;SDS011;33620;52.340;5.984;2024-01-06T08:13:07;44.78;;;22.60;;
47860;SDS011;33620;52.340;5.984;2024-01-06T08:15:33;44.35;;;21.30;;
47860;SDS011;33620;52.340;5.984;2024-01-06T08:17:59;47.72;;;22.30;;
47860;SDS011;33620;52.340;5.984;2024-01-06T08:20:24;43.30;;;20.92;;
47860;SDS011;33620;52.340;5.984;2024-01-06T08:22:49;44.53;;;22.27;;
47860;SDS011;33620;52.340;5.984;2024-01-06T08:25:15;42.42;;;22.83;;
47860;SDS011;33620;52.340;5.984;2024-01-06T08:27:42;45.20;;;23.75;;
47860;SDS011;33620;52.340;5.984;2024-01-06T08:30:08;47.40;;;23.58;;
47860;SDS011;33620;52.340;5.984;2024-01-06T08:32:33;41.97;;;20.92;;
47860;SDS011;33620;52.340;5.984;2024-01-06T08:34:59;43.65;;;20.67;;
47860;SDS011;33620;52.340;5.984;2024-01-06T08:37:24;41.15;;;20.67;;
47860;SDS011;33620;52.340;5.984;2024-01-06T08:39:49;39.80;;;21.08;;
47860;SDS011;33620;52.340;5.984;2024-01-06T08:42:15;40.95;;;21.05;;
47860;SDS011;33620;52.340;5.984;2024-01-06T08:44:40;37.88;;;20.35;;
47860;SDS011;33620;52.340;5.984;2024-01-06T08:47:06;38.08;;;19.30;;
47860;SDS011;33620;52.340;5.984;2024-01-06T08:49:31;42.30;;;21.48;;
47860;SDS011;33620;52.340;5.984;2024-01-06T08:51:57;40.50;;;19.50;;
47860;SDS011;33620;52.340;5.984;2024-01-06T08:54:23;41.92;;;21.15;;
47860;SDS011;33620;52.340;5.984;2024-01-06T08:56:48;40.03;;;21.20;;
47860;SDS011;33620;52.340;5.984;2024-01-06T08:59:14;39.15;;;20.85;;
47860;SDS011;33620;52.340;5.984;2024-01-06T09:01:39;39.00;;;20.50;;
47860;SDS011;33620;52.340;5.984;2024-01-06T09:04:04;40.55;;;20.27;;
47860;SDS011;33620;52.340;5.984;2024-01-06T09:06:31;39.95;;;20.35;;
47860;SDS011;33620;52.340;5.984;2024-01-06T09:08:57;37.53;;;20.08;;
47860;SDS011;33620;52.340;5.984;2024-01-06T09:11:22;39.55;;;20.92;;
47860;SDS011;33620;52.340;5.984;2024-01-06T09:13:47;37.08;;;19.80;;
47860;SDS011;33620;52.340;5.984;2024-01-06T09:16:13;37.30;;;18.05;;
47860;SDS011;33620;52.340;5.984;2024-01-06T09:18:38;34.95;;;19.52;;
47860;SDS011;33620;52.340;5.984;2024-01-06T09:21:04;37.53;;;19.95;;
47860;SDS011;33620;52.340;5.984;2024-01-06T09:23:30;37.67;;;19.48;;
47860;SDS011;33620;52.340;5.984;2024-01-06T09:25:56;41.78;;;19.77;;
47860;SDS011;33620;52.340;5.984;2024-01-06T09:28:22;34.20;;;19.33;;
47860;SDS011;33620;52.340;5.984;2024-01-06T09:30:48;31.23;;;16.80;;
47860;SDS011;33620;52.340;5.984;2024-01-06T09:33:14;36.22;;;18.90;;
47860;SDS011;33620;52.340;5.984;2024-01-06T09:35:41;31.48;;;17.42;;
47860;SDS011;33620;52.340;5.984;2024-01-06T09:38:08;32.58;;;18.17;;
47860;SDS011;33620;52.340;5.984;2024-01-06T09:40:34;33.85;;;16.95;;
47860;SDS011;33620;52.340;5.984;2024-01-06T09:43:00;29.88;;;15.13;;
47860;SDS011;33620;52.340;5.984;2024-01-06T09:45:27;30.42;;;15.50;;
47860;SDS011;33620;52.340;5.984;2024-01-06T09:47:53;28.77;;;15.43;;
47860;SDS011;33620;52.340;5.984;2024-01-06T09:50:20;31.00;;;15.25;;
47860;SDS011;33620;52.340;5.984;2024-01-06T09:52:46;28.83;;;14.48;;
47860;SDS011;33620;52.340;5.984;2024-01-06T09:55:23;27.67;;;14.88;;
47860;SDS011;33620;52.340;5.984;2024-01-06T09:57:50;35.15;;;17.80;;
47860;SDS011;33620;52.340;5.984;2024-01-06T10:00:16;28.85;;;15.77;;
47860;SDS011;33620;52.340;5.984;2024-01-06T10:02:42;29.50;;;15.80;;
47860;SDS011;33620;52.340;5.984;2024-01-06T10:05:08;30.98;;;16.42;;
47860;SDS011;33620;52.340;5.984;2024-01-06T10:07:35;32.08;;;15.80;;
47860;SDS011;33620;52.340;5.984;2024-01-06T10:10:00;28.77;;;15.32;;
47860;SDS011;33620;52.340;5.984;2024-01-06T10:12:25;30.83;;;15.48;;
47860;SDS011;33620;52.340;5.984;2024-01-06T10:14:51;27.23;;;14.70;;
47860;SDS011;33620;52.340;5.984;2024-01-06T10:17:17;30.40;;;14.95;;
47860;SDS011;33620;52.340;5.984;2024-01-06T10:19:46;29.40;;;13.75;;
47860;SDS011;33620;52.340;5.984;2024-01-06T10:22:13;27.98;;;14.57;;
47860;SDS011;33620;52.340;5.984;2024-01-06T10:24:38;30.38;;;15.52;;
47860;SDS011;33620;52.340;5.984;2024-01-06T10:27:04;26.50;;;13.65;;
47860;SDS011;33620;52.340;5.984;2024-01-06T10:29:30;23.67;;;13.23;;
47860;SDS011;33620;52.340;5.984;2024-01-06T10:31:55;29.65;;;15.85;;
47860;SDS011;33620;52.340;5.984;2024-01-06T10:34:24;26.80;;;14.07;;
47860;SDS011;33620;52.340;5.984;2024-01-06T10:36:50;31.38;;;15.85;;
47860;SDS011;33620;52.340;5.984;2024-01-06T10:39:19;30.05;;;14.75;;
47860;SDS011;33620;52.340;5.984;2024-01-06T10:41:45;28.52;;;15.43;;
47860;SDS011;33620;52.340;5.984;2024-01-06T10:44:12;29.77;;;16.45;;
47860;SDS011;33620;52.340;5.984;2024-01-06T10:46:39;28.75;;;15.00;;
47860;SDS011;33620;52.340;5.984;2024-01-06T10:49:06;29.45;;;15.85;;
47860;SDS011;33620;52.340;5.984;2024-01-06T10:51:36;30.65;;;15.75;;
47860;SDS011;33620;52.340;5.984;2024-01-06T10:54:02;28.77;;;15.10;;
47860;SDS011;33620;52.340;5.984;2024-01-06T10:56:29;28.30;;;15.38;;
47860;SDS011;33620;52.340;5.984;2024-01-06T10:58:55;27.67;;;15.30;;
47860;SDS011;33620;52.340;5.984;2024-01-06T11:01:22;30.70;;;16.02;;
47860;SDS011;33620;52.340;5.984;2024-01-06T11:03:52;29.40;;;16.23;;
47860;SDS011;33620;52.340;5.984;2024-01-06T11:06:19;30.55;;;16.15;;
47860;SDS011;33620;52.340;5.984;2024-01-06T11:09:05;28.10;;;15.10;;
47860;SDS011;33620;52.340;5.984;2024-01-06T11:11:36;32.17;;;15.65;;
47860;SDS011;33620;52.340;5.984;2024-01-06T11:16:50;31.45;;;15.95;;
47860;SDS011;33620;52.340;5.984;2024-01-06T11:24:52;31.02;;;17.17;;
47860;SDS011;33620;52.340;5.984;2024-01-06T11:27:22;31.20;;;16.77;;
47860;SDS011;33620;52.340;5.984;2024-01-06T11:29:53;29.05;;;16.05;;
47860;SDS011;33620;52.340;5.984;2024-01-06T11:32:26;30.20;;;17.13;;
47860;SDS011;33620;52.340;5.984;2024-01-06T11:35:04;34.60;;;18.17;;
47860;SDS011;33620;52.340;5.984;2024-01-06T11:37:36;33.60;;;17.33;;
47860;SDS011;33620;52.340;5.984;2024-01-06T11:40:30;34.85;;;17.40;;
47860;SDS011;33620;52.340;5.984;2024-01-06T11:45:37;33.20;;;18.52;;
47860;SDS011;33620;52.340;5.984;2024-01-06T11:48:06;34.70;;;18.13;;
47860;SDS011;33620;52.340;5.984;2024-01-06T11:50:33;32.75;;;17.65;;
47860;SDS011;33620;52.340;5.984;2024-01-06T11:53:01;37.42;;;19.05;;
47860;SDS011;33620;52.340;5.984;2024-01-06T11:55:27;33.20;;;18.48;;
47860;SDS011;33620;52.340;5.984;2024-01-06T11:57:54;34.92;;;18.63;;
47860;SDS011;33620;52.340;5.984;2024-01-06T12:00:21;36.25;;;18.73;;
47860;SDS011;33620;52.340;5.984;2024-01-06T12:02:46;36.28;;;18.85;;
47860;SDS011;33620;52.340;5.984;2024-01-06T12:05:15;37.35;;;19.65;;
47860;SDS011;33620;52.340;5.984;2024-01-06T12:07:43;39.10;;;20.25;;
47860;SDS011;33620;52.340;5.984;2024-01-06T12:10:09;35.67;;;19.45;;
47860;SDS011;33620;52.340;5.984;2024-01-06T12:12:36;33.17;;;18.38;;
47860;SDS011;33620;52.340;5.984;2024-01-06T12:15:01;36.22;;;19.00;;
47860;SDS011;33620;52.340;5.984;2024-01-06T12:17:30;35.75;;;19.98;;
47860;SDS011;33620;52.340;5.984;2024-01-06T12:19:56;32.08;;;17.95;;
47860;SDS011;33620;52.340;5.984;2024-01-06T12:22:21;33.05;;;17.30;;
47860;SDS011;33620;52.340;5.984;2024-01-06T12:24:49;36.53;;;18.55;;
47860;SDS011;33620;52.340;5.984;2024-01-06T12:27:16;35.50;;;19.48;;
47860;SDS011;33620;52.340;5.984;2024-01-06T12:29:42;37.90;;;19.65;;
47860;SDS011;33620;52.340;5.984;2024-01-06T12:32:10;33.55;;;17.90;;
47860;SDS011;33620;52.340;5.984;2024-01-06T12:34:38;40.00;;;19.95;;
47860;SDS011;33620;52.340;5.984;2024-01-06T12:37:04;35.83;;;19.10;;
47860;SDS011;33620;52.340;5.984;2024-01-06T12:39:30;34.53;;;19.25;;
47860;SDS011;33620;52.340;5.984;2024-01-06T12:41:57;31.35;;;18.55;;
47860;SDS011;33620;52.340;5.984;2024-01-06T12:44:24;30.67;;;15.80;;
47860;SDS011;33620;52.340;5.984;2024-01-06T12:46:50;36.47;;;19.50;;
47860;SDS011;33620;52.340;5.984;2024-01-06T12:49:15;31.83;;;18.35;;
47860;SDS011;33620;52.340;5.984;2024-01-06T12:51:41;32.33;;;18.05;;
47860;SDS011;33620;52.340;5.984;2024-01-06T12:54:06;33.17;;;17.95;;
47860;SDS011;33620;52.340;5.984;2024-01-06T12:56:31;31.60;;;16.88;;
47860;SDS011;33620;52.340;5.984;2024-01-06T12:58:57;30.10;;;16.77;;
47860;SDS011;33620;52.340;5.984;2024-01-06T13:01:22;32.22;;;17.98;;
47860;SDS011;33620;52.340;5.984;2024-01-06T13:03:48;31.20;;;18.00;;
47860;SDS011;33620;52.340;5.984;2024-01-06T13:06:13;35.92;;;19.67;;
47860;SDS011;33620;52.340;5.984;2024-01-06T13:08:40;35.15;;;19.48;;
47860;SDS011;33620;52.340;5.984;2024-01-06T13:11:07;36.53;;;19.83;;
47860;SDS011;33620;52.340;5.984;2024-01-06T13:13:32;35.55;;;20.80;;
47860;SDS011;33620;52.340;5.984;2024-01-06T13:15:58;35.65;;;19.35;;
47860;SDS011;33620;52.340;5.984;2024-01-06T13:18:23;35.42;;;20.25;;
47860;SDS011;33620;52.340;5.984;2024-01-06T13:20:48;35.30;;;19.67;;
47860;SDS011;33620;52.340;5.984;2024-01-06T13:23:14;36.72;;;19.70;;
47860;SDS011;33620;52.340;5.984;2024-01-06T13:25:40;35.10;;;19.30;;
47860;SDS011;33620;52.340;5.984;2024-01-06T13:28:06;38.60;;;20.02;;
47860;SDS011;33620;52.340;5.984;2024-01-06T13:30:32;36.63;;;19.48;;
47860;SDS011;33620;52.340;5.984;2024-01-06T13:32:58;38.28;;;20.33;;
47860;SDS011;33620;52.340;5.984;2024-01-06T13:35:24;33.53;;;18.75;;
47860;SDS011;33620;52.340;5.984;2024-01-06T13:37:52;37.10;;;20.27;;
47860;SDS011;33620;52.340;5.984;2024-01-06T13:40:18;34.97;;;18.67;;
47860;SDS011;33620;52.340;5.984;2024-01-06T13:42:47;34.78;;;19.73;;
47860;SDS011;33620;52.340;5.984;2024-01-06T13:45:19;33.63;;;19.55;;
47860;SDS011;33620;52.340;5.984;2024-01-06T13:47:44;31.65;;;17.63;;
47860;SDS011;33620;52.340;5.984;2024-01-06T13:50:16;32.65;;;18.58;;
47860;SDS011;33620;52.340;5.984;2024-01-06T13:52:42;34.17;;;17.80;;
47860;SDS011;33620;52.340;5.984;2024-01-06T13:55:08;35.03;;;18.95;;
47860;SDS011;33620;52.340;5.984;2024-01-06T13:57:34;34.20;;;17.52;;
47860;SDS011;33620;52.340;5.984;2024-01-06T14:00:00;34.38;;;17.70;;
47860;SDS011;33620;52.340;5.984;2024-01-06T14:02:26;35.35;;;18.88;;
47860;SDS011;33620;52.340;5.984;2024-01-06T14:04:52;31.45;;;17.52;;
47860;SDS011;33620;52.340;5.984;2024-01-06T14:07:17;38.25;;;19.98;;
47860;SDS011;33620;52.340;5.984;2024-01-06T14:09:44;36.40;;;18.92;;
47860;SDS011;33620;52.340;5.984;2024-01-06T14:12:10;33.00;;;18.15;;
47860;SDS011;33620;52.340;5.984;2024-01-06T14:14:36;33.08;;;18.63;;
47860;SDS011;33620;52.340;5.984;2024-01-06T14:17:01;37.40;;;20.08;;
47860;SDS011;33620;52.340;5.984;2024-01-06T14:19:27;36.30;;;20.50;;
47860;SDS011;33620;52.340;5.984;2024-01-06T14:21:52;36.85;;;19.77;;
47860;SDS011;33620;52.340;5.984;2024-01-06T14:24:18;33.78;;;18.42;;